DAL2080 SAEZ-SUMU
Flight info
| Callsign | DAL2080 |
|---|---|
| Flight time | 0h 27m |
| Altitude | 19000 |
| Route | DORVO1E DORVO A305 TOKAM |
| Aircraft | A319/M-SDE3FGHIRWY/LB1 |
Departure
| Time | 2026-04-26 18:14 |
|---|---|
| Airport | Ezeiza International Airport - Ministro Pistarini (SAEZ) |
Arrival
| Time | 2026-04-26 18:41 |
|---|---|
| Airport | Carrasco General Cesáreo L. Berisso International Airport (SUMU) |
| Time | Latitude | Longitude | Altitude | Speed | Heading |
|---|---|---|---|---|---|
| 2026-04-26 17:49 | -34.81307 | -58.53719 | 72 ft | 0 kts | 246° |
| 2026-04-26 18:02 | -34.81306 | -58.53715 | 72 ft | 2 kts | 246° |
| 2026-04-26 18:02 | -34.81300 | -58.53698 | 72 ft | 2 kts | 246° |
| 2026-04-26 18:03 | -34.81293 | -58.53681 | 72 ft | 2 kts | 246° |
| 2026-04-26 18:03 | -34.81287 | -58.53664 | 72 ft | 2 kts | 246° |
| 2026-04-26 18:03 | -34.81280 | -58.53646 | 72 ft | 2 kts | 246° |
| 2026-04-26 18:03 | -34.81274 | -58.53629 | 72 ft | 2 kts | 246° |
| 2026-04-26 18:04 | -34.81267 | -58.53611 | 72 ft | 2 kts | 246° |
| 2026-04-26 18:04 | -34.81263 | -58.53599 | 72 ft | 2 kts | 245° |
| 2026-04-26 18:04 | -34.81251 | -58.53587 | 72 ft | 0 kts | 186° |
| 2026-04-26 18:05 | -34.81242 | -58.53587 | 72 ft | 0 kts | 181° |
| 2026-04-26 18:07 | -34.81244 | -58.53587 | 72 ft | 0 kts | 181° |
| 2026-04-26 18:07 | -34.81261 | -58.53588 | 72 ft | 3 kts | 182° |
| 2026-04-26 18:07 | -34.81297 | -58.53589 | 72 ft | 6 kts | 182° |
| 2026-04-26 18:07 | -34.81332 | -58.53590 | 72 ft | 7 kts | 176° |
| 2026-04-26 18:08 | -34.81388 | -58.53519 | 72 ft | 10 kts | 118° |
| 2026-04-26 18:08 | -34.81427 | -58.53429 | 72 ft | 12 kts | 118° |
| 2026-04-26 18:08 | -34.81476 | -58.53321 | 72 ft | 14 kts | 120° |
| 2026-04-26 18:08 | -34.81532 | -58.53208 | 72 ft | 15 kts | 122° |
| 2026-04-26 18:09 | -34.81615 | -58.53122 | 72 ft | 15 kts | 165° |
| 2026-04-26 18:09 | -34.81723 | -58.53085 | 72 ft | 15 kts | 165° |
| 2026-04-26 18:09 | -34.81846 | -58.53043 | 72 ft | 18 kts | 162° |
| 2026-04-26 18:09 | -34.81981 | -58.52995 | 72 ft | 18 kts | 162° |
| 2026-04-26 18:10 | -34.82055 | -58.52869 | 72 ft | 18 kts | 103° |
| 2026-04-26 18:10 | -34.82088 | -58.52699 | 72 ft | 20 kts | 104° |
| 2026-04-26 18:10 | -34.82126 | -58.52504 | 72 ft | 22 kts | 103° |
| 2026-04-26 18:10 | -34.82169 | -58.52300 | 72 ft | 22 kts | 104° |
| 2026-04-26 18:11 | -34.82207 | -58.52116 | 72 ft | 20 kts | 105° |
| 2026-04-26 18:11 | -34.82245 | -58.51943 | 72 ft | 18 kts | 104° |
| 2026-04-26 18:11 | -34.82279 | -58.51799 | 72 ft | 13 kts | 126° |
| 2026-04-26 18:11 | -34.82366 | -58.51789 | 72 ft | 8 kts | 192° |
| 2026-04-26 18:12 | -34.82431 | -58.51808 | 72 ft | 9 kts | 195° |
| 2026-04-26 18:12 | -34.82463 | -58.51819 | 72 ft | 0 kts | 197° |
| 2026-04-26 18:12 | -34.82479 | -58.51825 | 72 ft | 4 kts | 197° |
| 2026-04-26 18:12 | -34.82518 | -58.51846 | 72 ft | 7 kts | 229° |
| 2026-04-26 18:13 | -34.82522 | -58.51918 | 72 ft | 10 kts | 281° |
| 2026-04-26 18:13 | -34.82468 | -58.52201 | 72 ft | 67 kts | 282° |
| 2026-04-26 18:13 | -34.82305 | -58.53113 | 73 ft | 133 kts | 282° |
| 2026-04-26 18:13 | -34.82145 | -58.53972 | 168 ft | 158 kts | 281° |
| 2026-04-26 18:14 | -34.81773 | -58.55770 | 1170 ft | 155 kts | 276° |
| 2026-04-26 18:14 | -34.81544 | -58.56990 | 2100 ft | 144 kts | 274° |
| 2026-04-26 18:14 | -34.81330 | -58.58264 | 2645 ft | 157 kts | 275° |
| 2026-04-26 18:14 | -34.81103 | -58.59663 | 3124 ft | 174 kts | 271° |
| 2026-04-26 18:15 | -34.81308 | -58.61189 | 3569 ft | 191 kts | 242° |
| 2026-04-26 18:15 | -34.82201 | -58.62521 | 4202 ft | 207 kts | 230° |
| 2026-04-26 18:15 | -34.83239 | -58.63928 | 4788 ft | 225 kts | 231° |
| 2026-04-26 18:15 | -34.84316 | -58.65409 | 5542 ft | 234 kts | 231° |
| 2026-04-26 18:16 | -34.85438 | -58.66939 | 6465 ft | 237 kts | 231° |
| 2026-04-26 18:16 | -34.87867 | -58.69929 | 8344 ft | 246 kts | 216° |
| 2026-04-26 18:16 | -34.89583 | -58.70608 | 9262 ft | 262 kts | 193° |
| 2026-04-26 18:17 | -34.91558 | -58.70308 | 10136 ft | 284 kts | 168° |
| 2026-04-26 18:17 | -34.93370 | -58.68865 | 10834 ft | 315 kts | 140° |
| 2026-04-26 18:17 | -34.94523 | -58.66258 | 11248 ft | 349 kts | 108° |
| 2026-04-26 18:17 | -34.94843 | -58.63152 | 11655 ft | 370 kts | 95° |
| 2026-04-26 18:18 | -34.94907 | -58.59885 | 12058 ft | 387 kts | 92° |
| 2026-04-26 18:18 | -34.94945 | -58.56433 | 12710 ft | 394 kts | 93° |
| 2026-04-26 18:18 | -34.95019 | -58.53016 | 13474 ft | 397 kts | 94° |
| 2026-04-26 18:18 | -34.95129 | -58.49511 | 14245 ft | 399 kts | 94° |
| 2026-04-26 18:19 | -34.95262 | -58.45903 | 14811 ft | 408 kts | 95° |
| 2026-04-26 18:19 | -34.95412 | -58.42251 | 15359 ft | 417 kts | 95° |
| 2026-04-26 18:19 | -34.95570 | -58.38526 | 15909 ft | 425 kts | 96° |
| 2026-04-26 18:19 | -34.95737 | -58.34687 | 16425 ft | 433 kts | 95° |
| 2026-04-26 18:20 | -34.95908 | -58.30812 | 16906 ft | 442 kts | 96° |
| 2026-04-26 18:20 | -34.96082 | -58.26750 | 17416 ft | 449 kts | 96° |
| 2026-04-26 18:20 | -34.96255 | -58.22633 | 17929 ft | 456 kts | 96° |
| 2026-04-26 18:20 | -34.96339 | -58.19829 | 18255 ft | 462 kts | 91° |
| 2026-04-26 18:21 | -34.95852 | -58.14276 | 18773 ft | 472 kts | 80° |
| 2026-04-26 18:21 | -34.95235 | -58.10003 | 18849 ft | 491 kts | 79° |
| 2026-04-26 18:21 | -34.94584 | -58.05502 | 18847 ft | 511 kts | 80° |
| 2026-04-26 18:21 | -34.93962 | -58.00866 | 18833 ft | 529 kts | 80° |
| 2026-04-26 18:22 | -34.93376 | -57.96148 | 18827 ft | 545 kts | 81° |
| 2026-04-26 18:22 | -34.92791 | -57.91230 | 18832 ft | 552 kts | 81° |
| 2026-04-26 18:22 | -34.92199 | -57.86232 | 18850 ft | 554 kts | 82° |
| 2026-04-26 18:22 | -34.91615 | -57.81232 | 18838 ft | 554 kts | 81° |
| 2026-04-26 18:23 | -34.91034 | -57.76303 | 18859 ft | 554 kts | 81° |
| 2026-04-26 18:23 | -34.90441 | -57.71276 | 18850 ft | 552 kts | 81° |
| 2026-04-26 18:23 | -34.89994 | -57.66430 | 18846 ft | 552 kts | 86° |
| 2026-04-26 18:23 | -34.89782 | -57.61416 | 18830 ft | 552 kts | 89° |
| 2026-04-26 18:24 | -34.89640 | -57.56390 | 18839 ft | 552 kts | 89° |
| 2026-04-26 18:24 | -34.89492 | -57.51378 | 18831 ft | 552 kts | 88° |
| 2026-04-26 18:24 | -34.89321 | -57.46410 | 18826 ft | 551 kts | 88° |
| 2026-04-26 18:24 | -34.89128 | -57.41439 | 18821 ft | 551 kts | 88° |
| 2026-04-26 18:25 | -34.88919 | -57.36446 | 18822 ft | 550 kts | 88° |
| 2026-04-26 18:25 | -34.88707 | -57.31529 | 18813 ft | 549 kts | 87° |
| 2026-04-26 18:25 | -34.88495 | -57.26621 | 18824 ft | 547 kts | 87° |
| 2026-04-26 18:25 | -34.88242 | -57.21762 | 18654 ft | 534 kts | 84° |
| 2026-04-26 18:26 | -34.87777 | -57.17050 | 18380 ft | 518 kts | 81° |
| 2026-04-26 18:26 | -34.87230 | -57.12437 | 18128 ft | 503 kts | 81° |
| 2026-04-26 18:26 | -34.86694 | -57.07933 | 17900 ft | 490 kts | 81° |
| 2026-04-26 18:26 | -34.86184 | -57.03545 | 17675 ft | 477 kts | 81° |
| 2026-04-26 18:27 | -34.85712 | -56.99303 | 17468 ft | 465 kts | 81° |
| 2026-04-26 18:27 | -34.85264 | -56.95215 | 17260 ft | 453 kts | 81° |
| 2026-04-26 18:27 | -34.84820 | -56.91152 | 17064 ft | 442 kts | 81° |
| 2026-04-26 18:27 | -34.84391 | -56.87182 | 16728 ft | 436 kts | 81° |
| 2026-04-26 18:28 | -34.83969 | -56.83282 | 16365 ft | 432 kts | 80° |
| 2026-04-26 18:28 | -34.83551 | -56.79449 | 16009 ft | 428 kts | 80° |
| 2026-04-26 18:28 | -34.83135 | -56.75661 | 15745 ft | 421 kts | 80° |
| 2026-04-26 18:28 | -34.82721 | -56.71886 | 15330 ft | 419 kts | 79° |
| 2026-04-26 18:29 | -34.82311 | -56.68162 | 14964 ft | 415 kts | 79° |
| 2026-04-26 18:29 | -34.81911 | -56.64517 | 14577 ft | 407 kts | 79° |
| 2026-04-26 18:29 | -34.81511 | -56.60888 | 14000 ft | 395 kts | 79° |
| 2026-04-26 18:29 | -34.81129 | -56.57440 | 13398 ft | 385 kts | 79° |
| 2026-04-26 18:30 | -34.80746 | -56.54052 | 12323 ft | 389 kts | 79° |
| 2026-04-26 18:30 | -34.80355 | -56.50606 | 11157 ft | 390 kts | 80° |
| 2026-04-26 18:30 | -34.79975 | -56.47225 | 10560 ft | 374 kts | 80° |
| 2026-04-26 18:30 | -34.79620 | -56.44025 | 10131 ft | 354 kts | 79° |
| 2026-04-26 18:31 | -34.79282 | -56.40971 | 9634 ft | 340 kts | 79° |
| 2026-04-26 18:31 | -34.78952 | -56.38050 | 9166 ft | 328 kts | 79° |
| 2026-04-26 18:31 | -34.78634 | -56.35253 | 8748 ft | 317 kts | 79° |
| 2026-04-26 18:31 | -34.78322 | -56.32495 | 8396 ft | 311 kts | 79° |
| 2026-04-26 18:32 | -34.78008 | -56.29760 | 8079 ft | 307 kts | 79° |
| 2026-04-26 18:32 | -34.77700 | -56.27065 | 7776 ft | 304 kts | 79° |
| 2026-04-26 18:32 | -34.77399 | -56.24427 | 7469 ft | 301 kts | 79° |
| 2026-04-26 18:32 | -34.77100 | -56.21796 | 7156 ft | 299 kts | 80° |
| 2026-04-26 18:33 | -34.76802 | -56.19226 | 6851 ft | 298 kts | 80° |
| 2026-04-26 18:33 | -34.76511 | -56.16678 | 6555 ft | 295 kts | 80° |
| 2026-04-26 18:33 | -34.76212 | -56.14082 | 6237 ft | 295 kts | 81° |
| 2026-04-26 18:33 | -34.75914 | -56.11482 | 5919 ft | 294 kts | 81° |
| 2026-04-26 18:34 | -34.75617 | -56.08899 | 5608 ft | 292 kts | 81° |
| 2026-04-26 18:34 | -34.75325 | -56.06360 | 5299 ft | 291 kts | 80° |
| 2026-04-26 18:34 | -34.75037 | -56.03867 | 4988 ft | 289 kts | 81° |
| 2026-04-26 18:34 | -34.74749 | -56.01389 | 4675 ft | 288 kts | 81° |
| 2026-04-26 18:35 | -34.74451 | -55.98849 | 4381 ft | 285 kts | 81° |
| 2026-04-26 18:35 | -34.74167 | -55.96377 | 4219 ft | 277 kts | 81° |
| 2026-04-26 18:35 | -34.73883 | -55.93935 | 4057 ft | 269 kts | 81° |
| 2026-04-26 18:35 | -34.73603 | -55.91535 | 3893 ft | 261 kts | 80° |
| 2026-04-26 18:36 | -34.73331 | -55.89204 | 3731 ft | 253 kts | 80° |
| 2026-04-26 18:36 | -34.73085 | -55.86953 | 3566 ft | 246 kts | 87° |
| 2026-04-26 18:36 | -34.73490 | -55.84858 | 3369 ft | 232 kts | 133° |
| 2026-04-26 18:36 | -34.74775 | -55.83772 | 3148 ft | 202 kts | 183° |
| 2026-04-26 18:37 | -34.76083 | -55.84168 | 3062 ft | 175 kts | 233° |
| 2026-04-26 18:37 | -34.76676 | -55.85456 | 2848 ft | 166 kts | 254° |
| 2026-04-26 18:37 | -34.77048 | -55.86859 | 2598 ft | 163 kts | 256° |
| 2026-04-26 18:37 | -34.77394 | -55.88245 | 2373 ft | 160 kts | 256° |
| 2026-04-26 18:38 | -34.77723 | -55.89564 | 2219 ft | 147 kts | 257° |
| 2026-04-26 18:38 | -34.78023 | -55.90768 | 1983 ft | 134 kts | 257° |
| 2026-04-26 18:38 | -34.78295 | -55.91860 | 1795 ft | 127 kts | 256° |
| 2026-04-26 18:38 | -34.78565 | -55.92949 | 1659 ft | 127 kts | 256° |
| 2026-04-26 18:39 | -34.78852 | -55.94034 | 1493 ft | 126 kts | 253° |
| 2026-04-26 18:39 | -34.79209 | -55.95002 | 1284 ft | 112 kts | 248° |
| 2026-04-26 18:39 | -34.79619 | -55.95888 | 1146 ft | 112 kts | 245° |
| 2026-04-26 18:39 | -34.80076 | -55.96771 | 1021 ft | 123 kts | 244° |
| 2026-04-26 18:40 | -34.80560 | -55.97702 | 844 ft | 122 kts | 243° |
| 2026-04-26 18:40 | -34.81070 | -55.98562 | 659 ft | 119 kts | 239° |
| 2026-04-26 18:40 | -34.81600 | -55.99438 | 494 ft | 121 kts | 241° |
| 2026-04-26 18:40 | -34.82141 | -56.00309 | 299 ft | 122 kts | 239° |
| 2026-04-26 18:41 | -34.82689 | -56.01192 | 178 ft | 123 kts | 240° |
| 2026-04-26 18:41 | -34.83206 | -56.02053 | 81 ft | 111 kts | 236° |
| 2026-04-26 18:41 | -34.83581 | -56.02663 | 71 ft | 61 kts | 233° |
| 2026-04-26 18:41 | -34.83713 | -56.02849 | 68 ft | 11 kts | 192° |
| 2026-04-26 18:42 | -34.83783 | -56.02842 | 67 ft | 10 kts | 172° |
| 2026-04-26 18:42 | -34.83866 | -56.02832 | 66 ft | 12 kts | 174° |
| 2026-04-26 18:42 | -34.83944 | -56.02784 | 64 ft | 13 kts | 148° |
| 2026-04-26 18:42 | -34.83971 | -56.02711 | 64 ft | 9 kts | 67° |
| 2026-04-26 18:43 | -34.83944 | -56.02628 | 65 ft | 10 kts | 79° |
| 2026-04-26 18:43 | -34.83941 | -56.02526 | 65 ft | 11 kts | 90° |
| 2026-04-26 18:43 | -34.83940 | -56.02412 | 66 ft | 13 kts | 90° |
| 2026-04-26 18:43 | -34.83941 | -56.02295 | 66 ft | 11 kts | 90° |
| 2026-04-26 18:44 | -34.83910 | -56.02227 | 67 ft | 9 kts | 15° |
| 2026-04-26 18:44 | -34.83847 | -56.02223 | 69 ft | 7 kts | 1° |
| 2026-04-26 18:44 | -34.83798 | -56.02222 | 70 ft | 6 kts | 7° |
| 2026-04-26 18:44 | -34.83760 | -56.02195 | 71 ft | 7 kts | 46° |
| 2026-04-26 18:45 | -34.83723 | -56.02138 | 72 ft | 9 kts | 53° |
| 2026-04-26 18:45 | -34.83682 | -56.02071 | 73 ft | 9 kts | 53° |
| 2026-04-26 18:45 | -34.83640 | -56.02004 | 75 ft | 10 kts | 53° |
| 2026-04-26 18:45 | -34.83593 | -56.01928 | 76 ft | 11 kts | 54° |
| 2026-04-26 18:46 | -34.83544 | -56.01848 | 78 ft | 11 kts | 53° |
| 2026-04-26 18:46 | -34.83509 | -56.01790 | 80 ft | 7 kts | 53° |